sensor_id;sensor_type;location;lat;lon;timestamp;temperature;humidity
23445;DHT22;11895;48.738;9.320;2022-07-23T21:10:47;25.70;90.30
23445;DHT22;11895;48.738;9.320;2022-07-23T21:15:42;25.70;90.40
23445;DHT22;11895;48.738;9.320;2022-07-23T21:18:10;25.60;90.80
23445;DHT22;11895;48.738;9.320;2022-07-23T21:20:38;25.60;90.80
23445;DHT22;11895;48.738;9.320;2022-07-23T21:23:23;25.50;90.90
23445;DHT22;11895;48.738;9.320;2022-07-23T21:25:51;25.50;91.10
23445;DHT22;11895;48.738;9.320;2022-07-23T21:28:38;25.60;90.90
23445;DHT22;11895;48.738;9.320;2022-07-23T21:31:05;25.70;90.70
23445;DHT22;11895;48.738;9.320;2022-07-23T21:33:33;25.50;91.10
23445;DHT22;11895;48.738;9.320;2022-07-23T21:36:01;25.30;91.20
23445;DHT22;11895;48.738;9.320;2022-07-23T21:38:29;25.30;91.40
23445;DHT22;11895;48.738;9.320;2022-07-23T21:40:56;25.30;91.50
23445;DHT22;11895;48.738;9.320;2022-07-23T21:43:24;25.30;91.60
23445;DHT22;11895;48.738;9.320;2022-07-23T21:45:51;25.30;91.70
23445;DHT22;11895;48.738;9.320;2022-07-23T21:48:18;25.10;91.60
23445;DHT22;11895;48.738;9.320;2022-07-23T21:50:46;25.10;91.90
23445;DHT22;11895;48.738;9.320;2022-07-23T21:53:13;25.00;92.10
23445;DHT22;11895;48.738;9.320;2022-07-23T21:55:40;24.90;92.20
23445;DHT22;11895;48.738;9.320;2022-07-23T21:58:07;24.90;92.40
23445;DHT22;11895;48.738;9.320;2022-07-23T22:00:35;24.90;92.40
23445;DHT22;11895;48.738;9.320;2022-07-23T22:03:04;24.80;92.70
23445;DHT22;11895;48.738;9.320;2022-07-23T22:05:31;24.80;92.90
23445;DHT22;11895;48.738;9.320;2022-07-23T22:08:00;25.00;92.50
23445;DHT22;11895;48.738;9.320;2022-07-23T22:10:28;25.00;92.70
23445;DHT22;11895;48.738;9.320;2022-07-23T22:12:55;24.90;92.90
23445;DHT22;11895;48.738;9.320;2022-07-23T22:15:23;24.70;93.00
23445;DHT22;11895;48.738;9.320;2022-07-23T22:17:52;24.50;93.30
23445;DHT22;11895;48.738;9.320;2022-07-23T22:20:19;24.40;93.40
23445;DHT22;11895;48.738;9.320;2022-07-23T22:22:49;24.50;93.40
23445;DHT22;11895;48.738;9.320;2022-07-23T22:25:18;24.40;93.40
23445;DHT22;11895;48.738;9.320;2022-07-23T22:27:47;24.40;93.50
23445;DHT22;11895;48.738;9.320;2022-07-23T22:30:16;24.40;93.40
23445;DHT22;11895;48.738;9.320;2022-07-23T22:32:46;24.40;93.70
23445;DHT22;11895;48.738;9.320;2022-07-23T22:35:13;24.20;93.80
23445;DHT22;11895;48.738;9.320;2022-07-23T22:37:41;24.10;93.90
23445;DHT22;11895;48.738;9.320;2022-07-23T22:40:09;23.90;94.10
23445;DHT22;11895;48.738;9.320;2022-07-23T22:42:39;23.90;94.20
23445;DHT22;11895;48.738;9.320;2022-07-23T22:45:07;23.90;94.30
23445;DHT22;11895;48.738;9.320;2022-07-23T22:47:35;23.90;94.40
23445;DHT22;11895;48.738;9.320;2022-07-23T22:50:02;23.90;94.40
23445;DHT22;11895;48.738;9.320;2022-07-23T22:52:38;23.80;94.50
23445;DHT22;11895;48.738;9.320;2022-07-23T22:55:05;23.70;94.60
23445;DHT22;11895;48.738;9.320;2022-07-23T22:57:34;23.80;94.60
23445;DHT22;11895;48.738;9.320;2022-07-23T23:00:03;23.70;94.60
23445;DHT22;11895;48.738;9.320;2022-07-23T23:02:32;23.60;94.70
23445;DHT22;11895;48.738;9.320;2022-07-23T23:04:59;23.50;95.00
23445;DHT22;11895;48.738;9.320;2022-07-23T23:07:27;23.40;95.10
23445;DHT22;11895;48.738;9.320;2022-07-23T23:09:54;23.40;95.30
23445;DHT22;11895;48.738;9.320;2022-07-23T23:12:21;23.50;95.20
23445;DHT22;11895;48.738;9.320;2022-07-23T23:14:49;23.40;94.80
23445;DHT22;11895;48.738;9.320;2022-07-23T23:19:43;23.20;95.60
23445;DHT22;11895;48.738;9.320;2022-07-23T23:22:11;23.30;95.90
23445;DHT22;11895;48.738;9.320;2022-07-23T23:24:38;23.20;96.00
23445;DHT22;11895;48.738;9.320;2022-07-23T23:27:05;23.20;96.00
23445;DHT22;11895;48.738;9.320;2022-07-23T23:29:32;23.10;96.10
23445;DHT22;11895;48.738;9.320;2022-07-23T23:31:59;23.00;96.30
23445;DHT22;11895;48.738;9.320;2022-07-23T23:34:26;22.90;96.60
23445;DHT22;11895;48.738;9.320;2022-07-23T23:36:54;22.80;96.80
23445;DHT22;11895;48.738;9.320;2022-07-23T23:39:21;22.80;96.70
23445;DHT22;11895;48.738;9.320;2022-07-23T23:41:48;22.80;97.00
23445;DHT22;11895;48.738;9.320;2022-07-23T23:44:15;22.70;96.60
23445;DHT22;11895;48.738;9.320;2022-07-23T23:46:43;22.80;97.20
23445;DHT22;11895;48.738;9.320;2022-07-23T23:49:11;22.80;96.90
23445;DHT22;11895;48.738;9.320;2022-07-23T23:51:39;22.90;97.00
23445;DHT22;11895;48.738;9.320;2022-07-23T23:54:09;22.70;96.90
23445;DHT22;11895;48.738;9.320;2022-07-23T23:56:38;22.80;97.10
23445;DHT22;11895;48.738;9.320;2022-07-23T23:59:05;22.60;97.10
